RJFZ(METAR)
08/24 02:00
METAR RJFZ 231700Z 24005KT 9999 FEW015 BKN030 BKN140 24/22 Q1009 RMK
1CU015 5CU030 7AC140 A2982=
戻る
トップページへ戻る
IMOC Co,.Ltd.